sensor_id;sensor_type;location;lat;lon;timestamp;temperature;humidity
9544;DHT22;30418;51.45933468;7.33152330;2024-03-29T00:02:24;11.70;55.60
9544;DHT22;30418;51.45933468;7.33152330;2024-03-29T00:04:51;11.70;55.50
9544;DHT22;30418;51.45933468;7.33152330;2024-03-29T00:07:18;11.60;55.40
9544;DHT22;30418;51.45933468;7.33152330;2024-03-29T00:09:44;11.60;55.40
9544;DHT22;30418;51.45933468;7.33152330;2024-03-29T00:12:12;11.60;55.40
9544;DHT22;30418;51.45933468;7.33152330;2024-03-29T00:14:39;11.70;55.50
9544;DHT22;30418;51.45933468;7.33152330;2024-03-29T00:17:06;11.60;55.40
9544;DHT22;30418;51.45933468;7.33152330;2024-03-29T00:19:32;11.60;55.40
9544;DHT22;30418;51.45933468;7.33152330;2024-03-29T00:21:59;11.60;55.40
9544;DHT22;30418;51.45933468;7.33152330;2024-03-29T00:24:26;11.60;55.40
9544;DHT22;30418;51.45933468;7.33152330;2024-03-29T00:26:52;11.60;55.40
9544;DHT22;30418;51.45933468;7.33152330;2024-03-29T00:29:20;11.60;56.00
9544;DHT22;30418;51.45933468;7.33152330;2024-03-29T00:31:47;11.60;55.40
9544;DHT22;30418;51.45933468;7.33152330;2024-03-29T00:34:15;11.60;55.40
9544;DHT22;30418;51.45933468;7.33152330;2024-03-29T00:36:41;11.60;55.40
9544;DHT22;30418;51.45933468;7.33152330;2024-03-29T00:39:08;11.60;55.20
9544;DHT22;30418;51.45933468;7.33152330;2024-03-29T00:41:35;11.60;55.20
9544;DHT22;30418;51.45933468;7.33152330;2024-03-29T00:44:02;11.60;55.20
9544;DHT22;30418;51.45933468;7.33152330;2024-03-29T00:46:31;11.60;55.20
9544;DHT22;30418;51.45933468;7.33152330;2024-03-29T00:48:58;11.60;55.20
9544;DHT22;30418;51.45933468;7.33152330;2024-03-29T00:51:25;11.60;55.30
9544;DHT22;30418;51.45933468;7.33152330;2024-03-29T00:53:51;11.50;55.20
9544;DHT22;30418;51.45933468;7.33152330;2024-03-29T00:56:18;11.50;55.20
9544;DHT22;30418;51.45933468;7.33152330;2024-03-29T00:58:45;11.50;55.10
9544;DHT22;30418;51.45933468;7.33152330;2024-03-29T01:01:12;11.50;55.10
9544;DHT22;30418;51.45933468;7.33152330;2024-03-29T01:03:41;11.50;55.20
9544;DHT22;30418;51.45933468;7.33152330;2024-03-29T01:06:07;11.50;55.20
9544;DHT22;30418;51.45933468;7.33152330;2024-03-29T01:08:34;11.50;55.20
9544;DHT22;30418;51.45933468;7.33152330;2024-03-29T01:11:00;11.50;55.20
9544;DHT22;30418;51.45933468;7.33152330;2024-03-29T01:13:27;11.50;55.10
9544;DHT22;30418;51.45933468;7.33152330;2024-03-29T01:15:54;11.50;55.20
9544;DHT22;30418;51.45933468;7.33152330;2024-03-29T01:18:21;11.40;55.10
9544;DHT22;30418;51.45933468;7.33152330;2024-03-29T01:20:49;11.50;55.20
9544;DHT22;30418;51.45933468;7.33152330;2024-03-29T01:23:16;11.50;55.20
9544;DHT22;30418;51.45933468;7.33152330;2024-03-29T01:25:44;11.50;55.20
9544;DHT22;30418;51.45933468;7.33152330;2024-03-29T01:28:10;11.40;55.20
9544;DHT22;30418;51.45933468;7.33152330;2024-03-29T01:30:37;11.40;55.10
9544;DHT22;30418;51.45933468;7.33152330;2024-03-29T01:33:04;11.50;55.20
9544;DHT22;30418;51.45933468;7.33152330;2024-03-29T01:35:31;11.50;55.20
9544;DHT22;30418;51.45933468;7.33152330;2024-03-29T01:37:59;11.50;55.20
9544;DHT22;30418;51.45933468;7.33152330;2024-03-29T01:40:26;11.40;55.10
9544;DHT22;30418;51.45933468;7.33152330;2024-03-29T01:42:53;11.50;55.20
9544;DHT22;30418;51.45933468;7.33152330;2024-03-29T01:45:20;11.40;55.20
9544;DHT22;30418;51.45933468;7.33152330;2024-03-29T01:47:48;11.40;55.20
9544;DHT22;30418;51.45933468;7.33152330;2024-03-29T01:50:15;11.50;55.20
9544;DHT22;30418;51.45933468;7.33152330;2024-03-29T01:52:43;11.50;55.80
9544;DHT22;30418;51.45933468;7.33152330;2024-03-29T01:55:12;11.50;55.20
9544;DHT22;30418;51.45933468;7.33152330;2024-03-29T01:57:41;11.50;55.10
9544;DHT22;30418;51.45933468;7.33152330;2024-03-29T02:00:09;11.50;55.20
9544;DHT22;30418;51.45933468;7.33152330;2024-03-29T02:02:37;11.50;55.20
9544;DHT22;30418;51.45933468;7.33152330;2024-03-29T02:05:05;11.50;55.20
9544;DHT22;30418;51.45933468;7.33152330;2024-03-29T02:07:33;11.50;55.10
9544;DHT22;30418;51.45933468;7.33152330;2024-03-29T02:10:02;11.50;55.10
9544;DHT22;30418;51.45933468;7.33152330;2024-03-29T02:12:32;11.50;55.00
9544;DHT22;30418;51.45933468;7.33152330;2024-03-29T02:15:01;11.50;55.00
9544;DHT22;30418;51.45933468;7.33152330;2024-03-29T02:17:29;11.60;55.10
9544;DHT22;30418;51.45933468;7.33152330;2024-03-29T02:19:56;11.60;55.10
9544;DHT22;30418;51.45933468;7.33152330;2024-03-29T02:22:25;11.60;55.10
9544;DHT22;30418;51.45933468;7.33152330;2024-03-29T02:24:56;11.60;55.00
9544;DHT22;30418;51.45933468;7.33152330;2024-03-29T02:27:23;11.60;55.00
9544;DHT22;30418;51.45933468;7.33152330;2024-03-29T02:29:51;11.60;55.00
9544;DHT22;30418;51.45933468;7.33152330;2024-03-29T02:32:19;11.60;55.60
9544;DHT22;30418;51.45933468;7.33152330;2024-03-29T02:34:46;11.60;55.00
9544;DHT22;30418;51.45933468;7.33152330;2024-03-29T02:37:14;11.60;55.00
9544;DHT22;30418;51.45933468;7.33152330;2024-03-29T02:39:41;11.70;55.00
9544;DHT22;30418;51.45933468;7.33152330;2024-03-29T02:42:10;11.70;55.00
9544;DHT22;30418;51.45933468;7.33152330;2024-03-29T02:44:38;11.70;55.00
9544;DHT22;30418;51.45933468;7.33152330;2024-03-29T02:47:05;11.70;54.90
9544;DHT22;30418;51.45933468;7.33152330;2024-03-29T02:49:33;11.70;54.90
9544;DHT22;30418;51.45933468;7.33152330;2024-03-29T02:51:59;11.70;54.90
9544;DHT22;30418;51.45933468;7.33152330;2024-03-29T02:54:27;11.70;54.90
9544;DHT22;30418;51.45933468;7.33152330;2024-03-29T02:56:54;11.70;54.90
9544;DHT22;30418;51.45933468;7.33152330;2024-03-29T02:59:22;11.80;54.90
9544;DHT22;30418;51.45933468;7.33152330;2024-03-29T03:01:49;11.80;54.90
9544;DHT22;30418;51.45933468;7.33152330;2024-03-29T03:04:17;11.80;54.90
9544;DHT22;30418;51.45933468;7.33152330;2024-03-29T03:06:43;11.80;54.90
9544;DHT22;30418;51.45933468;7.33152330;2024-03-29T03:09:11;11.80;54.90
9544;DHT22;30418;51.45933468;7.33152330;2024-03-29T03:11:56;11.80;54.90
9544;DHT22;30418;51.45933468;7.33152330;2024-03-29T03:14:26;11.90;54.90
9544;DHT22;30418;51.45933468;7.33152330;2024-03-29T03:16:54;11.90;54.80
9544;DHT22;30418;51.45933468;7.33152330;2024-03-29T03:19:21;12.00;54.90
9544;DHT22;30418;51.45933468;7.33152330;2024-03-29T03:21:50;11.90;54.90
9544;DHT22;30418;51.45933468;7.33152330;2024-03-29T03:24:18;12.00;55.10
9544;DHT22;30418;51.45933468;7.33152330;2024-03-29T03:26:44;12.00;55.10
9544;DHT22;30418;51.45933468;7.33152330;2024-03-29T03:29:12;12.00;55.20
9544;DHT22;30418;51.45933468;7.33152330;2024-03-29T03:31:40;12.00;55.30
9544;DHT22;30418;51.45933468;7.33152330;2024-03-29T03:34:07;12.00;55.40
9544;DHT22;30418;51.45933468;7.33152330;2024-03-29T03:36:34;12.00;55.50
9544;DHT22;30418;51.45933468;7.33152330;2024-03-29T03:39:03;12.00;55.60
9544;DHT22;30418;51.45933468;7.33152330;2024-03-29T03:41:30;12.00;55.70
9544;DHT22;30418;51.45933468;7.33152330;2024-03-29T03:43:57;12.00;55.70
9544;DHT22;30418;51.45933468;7.33152330;2024-03-29T03:46:25;12.00;55.80
9544;DHT22;30418;51.45933468;7.33152330;2024-03-29T03:48:53;12.00;55.80
9544;DHT22;30418;51.45933468;7.33152330;2024-03-29T03:51:20;12.00;55.90
9544;DHT22;30418;51.45933468;7.33152330;2024-03-29T03:53:47;12.00;55.90
9544;DHT22;30418;51.45933468;7.33152330;2024-03-29T03:56:15;12.00;56.00
9544;DHT22;30418;51.45933468;7.33152330;2024-03-29T03:58:44;12.00;56.00
9544;DHT22;30418;51.45933468;7.33152330;2024-03-29T04:01:11;12.00;56.20
9544;DHT22;30418;51.45933468;7.33152330;2024-03-29T04:03:38;12.00;56.20
9544;DHT22;30418;51.45933468;7.33152330;2024-03-29T04:06:07;12.00;56.30
9544;DHT22;30418;51.45933468;7.33152330;2024-03-29T04:08:34;12.00;56.40
9544;DHT22;30418;51.45933468;7.33152330;2024-03-29T04:11:02;12.00;56.50
9544;DHT22;30418;51.45933468;7.33152330;2024-03-29T04:13:30;12.00;56.60
9544;DHT22;30418;51.45933468;7.33152330;2024-03-29T04:16:01;12.00;56.60
9544;DHT22;30418;51.45933468;7.33152330;2024-03-29T04:18:28;12.00;56.80
9544;DHT22;30418;51.45933468;7.33152330;2024-03-29T04:20:56;12.00;56.80
9544;DHT22;30418;51.45933468;7.33152330;2024-03-29T04:23:24;12.00;56.90
9544;DHT22;30418;51.45933468;7.33152330;2024-03-29T04:25:53;12.00;57.00
9544;DHT22;30418;51.45933468;7.33152330;2024-03-29T04:28:19;12.00;57.10
9544;DHT22;30418;51.45933468;7.33152330;2024-03-29T04:30:51;11.90;57.00
9544;DHT22;30418;51.45933468;7.33152330;2024-03-29T04:33:18;11.90;57.20
9544;DHT22;30418;51.45933468;7.33152330;2024-03-29T04:35:54;11.90;57.20
9544;DHT22;30418;51.45933468;7.33152330;2024-03-29T04:38:21;11.90;57.30
9544;DHT22;30418;51.45933468;7.33152330;2024-03-29T04:40:51;11.90;57.20
9544;DHT22;30418;51.45933468;7.33152330;2024-03-29T04:43:22;11.90;57.40
9544;DHT22;30418;51.45933468;7.33152330;2024-03-29T04:46:00;11.90;57.50
9544;DHT22;30418;51.45933468;7.33152330;2024-03-29T04:48:30;11.80;57.50
9544;DHT22;30418;51.45933468;7.33152330;2024-03-29T04:50:58;11.90;57.70
9544;DHT22;30418;51.45933468;7.33152330;2024-03-29T04:53:25;11.80;57.70
9544;DHT22;30418;51.45933468;7.33152330;2024-03-29T04:55:58;11.80;57.70
9544;DHT22;30418;51.45933468;7.33152330;2024-03-29T04:58:25;11.80;58.10
9544;DHT22;30418;51.45933468;7.33152330;2024-03-29T05:00:55;11.80;57.90
9544;DHT22;30418;51.45933468;7.33152330;2024-03-29T05:03:23;11.80;58.10
9544;DHT22;30418;51.45933468;7.33152330;2024-03-29T05:05:51;11.80;58.10
9544;DHT22;30418;51.45933468;7.33152330;2024-03-29T05:08:19;11.80;58.10
9544;DHT22;30418;51.45933468;7.33152330;2024-03-29T05:10:48;11.80;58.10
9544;DHT22;30418;51.45933468;7.33152330;2024-03-29T05:13:19;11.70;58.10
9544;DHT22;30418;51.45933468;7.33152330;2024-03-29T05:15:47;11.70;58.30
9544;DHT22;30418;51.45933468;7.33152330;2024-03-29T05:18:15;11.70;58.40
9544;DHT22;30418;51.45933468;7.33152330;2024-03-29T05:20:43;11.70;58.50
9544;DHT22;30418;51.45933468;7.33152330;2024-03-29T05:23:13;11.70;58.60
9544;DHT22;30418;51.45933468;7.33152330;2024-03-29T05:25:42;11.70;58.70
9544;DHT22;30418;51.45933468;7.33152330;2024-03-29T05:28:10;11.70;58.80
9544;DHT22;30418;51.45933468;7.33152330;2024-03-29T05:30:38;11.70;58.90
9544;DHT22;30418;51.45933468;7.33152330;2024-03-29T05:33:06;11.70;59.10
9544;DHT22;30418;51.45933468;7.33152330;2024-03-29T05:35:34;11.70;59.10
9544;DHT22;30418;51.45933468;7.33152330;2024-03-29T05:38:01;11.70;59.10
9544;DHT22;30418;51.45933468;7.33152330;2024-03-29T05:40:29;11.60;59.10
9544;DHT22;30418;51.45933468;7.33152330;2024-03-29T05:42:57;11.60;59.10
9544;DHT22;30418;51.45933468;7.33152330;2024-03-29T05:45:25;11.60;59.20
9544;DHT22;30418;51.45933468;7.33152330;2024-03-29T05:47:56;11.60;59.30
9544;DHT22;30418;51.45933468;7.33152330;2024-03-29T05:50:25;11.60;59.50
9544;DHT22;30418;51.45933468;7.33152330;2024-03-29T05:52:53;11.60;59.50
9544;DHT22;30418;51.45933468;7.33152330;2024-03-29T05:55:21;11.60;59.50
9544;DHT22;30418;51.45933468;7.33152330;2024-03-29T05:57:48;11.60;59.50
9544;DHT22;30418;51.45933468;7.33152330;2024-03-29T06:00:16;11.60;59.50
9544;DHT22;30418;51.45933468;7.33152330;2024-03-29T06:02:44;11.60;59.50
9544;DHT22;30418;51.45933468;7.33152330;2024-03-29T06:05:14;11.60;59.50
9544;DHT22;30418;51.45933468;7.33152330;2024-03-29T06:07:41;11.60;59.60
9544;DHT22;30418;51.45933468;7.33152330;2024-03-29T06:10:09;11.60;59.50
9544;DHT22;30418;51.45933468;7.33152330;2024-03-29T06:12:37;11.60;59.60
9544;DHT22;30418;51.45933468;7.33152330;2024-03-29T06:15:06;11.50;59.60
9544;DHT22;30418;51.45933468;7.33152330;2024-03-29T06:17:52;11.50;59.70
9544;DHT22;30418;51.45933468;7.33152330;2024-03-29T06:20:21;11.50;59.70
9544;DHT22;30418;51.45933468;7.33152330;2024-03-29T06:22:48;11.50;59.80
9544;DHT22;30418;51.45933468;7.33152330;2024-03-29T06:25:16;11.50;59.70
9544;DHT22;30418;51.45933468;7.33152330;2024-03-29T06:27:44;11.50;59.90
9544;DHT22;30418;51.45933468;7.33152330;2024-03-29T06:30:15;11.50;60.00
9544;DHT22;30418;51.45933468;7.33152330;2024-03-29T06:32:43;11.50;60.10
9544;DHT22;30418;51.45933468;7.33152330;2024-03-29T06:35:11;11.50;60.20
9544;DHT22;30418;51.45933468;7.33152330;2024-03-29T06:37:41;11.50;60.40
9544;DHT22;30418;51.45933468;7.33152330;2024-03-29T06:40:09;11.50;60.30
9544;DHT22;30418;51.45933468;7.33152330;2024-03-29T06:42:38;11.50;60.50
9544;DHT22;30418;51.45933468;7.33152330;2024-03-29T06:45:06;11.50;60.60
9544;DHT22;30418;51.45933468;7.33152330;2024-03-29T06:47:36;11.50;60.70
9544;DHT22;30418;51.45933468;7.33152330;2024-03-29T06:50:05;11.50;60.70
9544;DHT22;30418;51.45933468;7.33152330;2024-03-29T06:52:33;11.50;60.90
9544;DHT22;30418;51.45933468;7.33152330;2024-03-29T06:55:02;11.50;60.80
9544;DHT22;30418;51.45933468;7.33152330;2024-03-29T06:57:31;11.60;61.20
9544;DHT22;30418;51.45933468;7.33152330;2024-03-29T06:59:59;11.60;61.20
9544;DHT22;30418;51.45933468;7.33152330;2024-03-29T07:02:26;11.60;61.20
9544;DHT22;30418;51.45933468;7.33152330;2024-03-29T07:04:53;11.60;61.30
9544;DHT22;30418;51.45933468;7.33152330;2024-03-29T07:07:20;11.60;61.40
9544;DHT22;30418;51.45933468;7.33152330;2024-03-29T07:09:48;11.60;61.60
9544;DHT22;30418;51.45933468;7.33152330;2024-03-29T07:12:17;11.60;61.50
9544;DHT22;30418;51.45933468;7.33152330;2024-03-29T07:14:45;11.60;61.70
9544;DHT22;30418;51.45933468;7.33152330;2024-03-29T07:17:12;11.60;61.70
9544;DHT22;30418;51.45933468;7.33152330;2024-03-29T07:19:40;11.60;61.80
9544;DHT22;30418;51.45933468;7.33152330;2024-03-29T07:22:07;11.70;62.00
9544;DHT22;30418;51.45933468;7.33152330;2024-03-29T07:24:35;11.70;62.10
9544;DHT22;30418;51.45933468;7.33152330;2024-03-29T07:27:03;11.70;62.20
9544;DHT22;30418;51.45933468;7.33152330;2024-03-29T07:29:32;11.70;62.30
9544;DHT22;30418;51.45933468;7.33152330;2024-03-29T07:32:00;11.70;62.40
9544;DHT22;30418;51.45933468;7.33152330;2024-03-29T07:34:28;11.70;62.50
9544;DHT22;30418;51.45933468;7.33152330;2024-03-29T07:36:56;11.70;62.60
9544;DHT22;30418;51.45933468;7.33152330;2024-03-29T07:39:23;11.80;62.80
9544;DHT22;30418;51.45933468;7.33152330;2024-03-29T07:41:51;11.80;62.90
9544;DHT22;30418;51.45933468;7.33152330;2024-03-29T07:44:18;11.80;62.90
9544;DHT22;30418;51.45933468;7.33152330;2024-03-29T07:46:48;11.90;63.00
9544;DHT22;30418;51.45933468;7.33152330;2024-03-29T07:49:15;11.90;63.20
9544;DHT22;30418;51.45933468;7.33152330;2024-03-29T07:51:47;11.90;63.10
9544;DHT22;30418;51.45933468;7.33152330;2024-03-29T07:54:16;11.90;63.10
9544;DHT22;30418;51.45933468;7.33152330;2024-03-29T07:56:43;11.90;63.10
9544;DHT22;30418;51.45933468;7.33152330;2024-03-29T07:59:11;12.00;63.30
9544;DHT22;30418;51.45933468;7.33152330;2024-03-29T08:01:39;12.00;63.30
9544;DHT22;30418;51.45933468;7.33152330;2024-03-29T08:04:09;12.00;63.30
9544;DHT22;30418;51.45933468;7.33152330;2024-03-29T08:06:37;12.10;63.60
9544;DHT22;30418;51.45933468;7.33152330;2024-03-29T08:09:04;12.00;63.40
9544;DHT22;30418;51.45933468;7.33152330;2024-03-29T08:11:32;12.10;63.60
9544;DHT22;30418;51.45933468;7.33152330;2024-03-29T08:14:00;12.10;63.70
9544;DHT22;30418;51.45933468;7.33152330;2024-03-29T08:16:28;12.10;63.80
9544;DHT22;30418;51.45933468;7.33152330;2024-03-29T08:18:56;12.10;63.90
9544;DHT22;30418;51.45933468;7.33152330;2024-03-29T08:21:25;12.20;64.00
9544;DHT22;30418;51.45933468;7.33152330;2024-03-29T08:23:53;12.20;64.10
9544;DHT22;30418;51.45933468;7.33152330;2024-03-29T08:26:22;12.20;64.00
9544;DHT22;30418;51.45933468;7.33152330;2024-03-29T08:28:50;12.20;64.00
9544;DHT22;30418;51.45933468;7.33152330;2024-03-29T08:31:18;12.20;64.10
9544;DHT22;30418;51.45933468;7.33152330;2024-03-29T08:33:46;12.30;64.30
9544;DHT22;30418;51.45933468;7.33152330;2024-03-29T08:36:14;12.30;64.30
9544;DHT22;30418;51.45933468;7.33152330;2024-03-29T08:38:43;12.30;64.30
9544;DHT22;30418;51.45933468;7.33152330;2024-03-29T08:41:12;12.30;64.30
9544;DHT22;30418;51.45933468;7.33152330;2024-03-29T08:43:40;12.30;64.30
9544;DHT22;30418;51.45933468;7.33152330;2024-03-29T08:46:08;12.30;64.30
9544;DHT22;30418;51.45933468;7.33152330;2024-03-29T08:48:36;12.40;64.40
9544;DHT22;30418;51.45933468;7.33152330;2024-03-29T08:51:06;12.40;64.60
9544;DHT22;30418;51.45933468;7.33152330;2024-03-29T08:53:33;12.40;64.50
9544;DHT22;30418;51.45933468;7.33152330;2024-03-29T08:56:03;12.50;64.60
9544;DHT22;30418;51.45933468;7.33152330;2024-03-29T08:58:31;12.50;64.90
9544;DHT22;30418;51.45933468;7.33152330;2024-03-29T09:00:58;12.50;65.00
9544;DHT22;30418;51.45933468;7.33152330;2024-03-29T09:03:30;12.50;65.00
9544;DHT22;30418;51.45933468;7.33152330;2024-03-29T09:05:58;12.50;65.00
9544;DHT22;30418;51.45933468;7.33152330;2024-03-29T09:08:26;12.50;65.10
9544;DHT22;30418;51.45933468;7.33152330;2024-03-29T09:10:54;12.50;65.10
9544;DHT22;30418;51.45933468;7.33152330;2024-03-29T09:13:23;12.50;65.30
9544;DHT22;30418;51.45933468;7.33152330;2024-03-29T09:15:51;12.60;65.60
9544;DHT22;30418;51.45933468;7.33152330;2024-03-29T09:18:18;12.60;65.70
9544;DHT22;30418;51.45933468;7.33152330;2024-03-29T09:20:56;12.60;65.80
9544;DHT22;30418;51.45933468;7.33152330;2024-03-29T09:23:25;12.70;66.40
9544;DHT22;30418;51.45933468;7.33152330;2024-03-29T09:25:54;12.70;66.10
9544;DHT22;30418;51.45933468;7.33152330;2024-03-29T09:28:23;12.80;66.10
9544;DHT22;30418;51.45933468;7.33152330;2024-03-29T09:30:57;12.80;66.10
9544;DHT22;30418;51.45933468;7.33152330;2024-03-29T09:33:25;12.80;66.20
9544;DHT22;30418;51.45933468;7.33152330;2024-03-29T09:35:53;12.90;66.00
9544;DHT22;30418;51.45933468;7.33152330;2024-03-29T09:38:21;12.90;66.10
9544;DHT22;30418;51.45933468;7.33152330;2024-03-29T09:40:54;12.90;66.00
9544;DHT22;30418;51.45933468;7.33152330;2024-03-29T09:43:28;13.00;66.20
9544;DHT22;30418;51.45933468;7.33152330;2024-03-29T09:45:56;13.00;67.10
9544;DHT22;30418;51.45933468;7.33152330;2024-03-29T09:48:23;13.00;66.20
9544;DHT22;30418;51.45933468;7.33152330;2024-03-29T09:50:53;13.10;67.20
9544;DHT22;30418;51.45933468;7.33152330;2024-03-29T09:53:21;13.10;66.40
9544;DHT22;30418;51.45933468;7.33152330;2024-03-29T09:55:51;13.10;66.40
9544;DHT22;30418;51.45933468;7.33152330;2024-03-29T09:58:19;13.20;66.60
9544;DHT22;30418;51.45933468;7.33152330;2024-03-29T10:00:48;13.30;66.80
9544;DHT22;30418;51.45933468;7.33152330;2024-03-29T10:03:16;13.30;66.70
9544;DHT22;30418;51.45933468;7.33152330;2024-03-29T10:05:46;13.40;66.70
9544;DHT22;30418;51.45933468;7.33152330;2024-03-29T10:08:14;13.40;66.70
9544;DHT22;30418;51.45933468;7.33152330;2024-03-29T10:10:42;13.50;66.70
9544;DHT22;30418;51.45933468;7.33152330;2024-03-29T10:13:10;13.50;66.50
9544;DHT22;30418;51.45933468;7.33152330;2024-03-29T10:15:38;13.60;66.40
9544;DHT22;30418;51.45933468;7.33152330;2024-03-29T10:18:10;13.60;66.40
9544;DHT22;30418;51.45933468;7.33152330;2024-03-29T10:20:38;13.70;66.50
9544;DHT22;30418;51.45933468;7.33152330;2024-03-29T10:23:06;13.70;66.50
9544;DHT22;30418;51.45933468;7.33152330;2024-03-29T10:25:34;13.80;66.60
9544;DHT22;30418;51.45933468;7.33152330;2024-03-29T10:28:02;13.80;66.50
9544;DHT22;30418;51.45933468;7.33152330;2024-03-29T10:30:30;13.80;66.40
9544;DHT22;30418;51.45933468;7.33152330;2024-03-29T10:32:58;13.90;66.20
9544;DHT22;30418;51.45933468;7.33152330;2024-03-29T10:35:27;13.90;66.00
9544;DHT22;30418;51.45933468;7.33152330;2024-03-29T10:37:55;14.00;66.10
9544;DHT22;30418;51.45933468;7.33152330;2024-03-29T10:40:23;14.00;66.10
9544;DHT22;30418;51.45933468;7.33152330;2024-03-29T10:42:52;14.00;66.00
9544;DHT22;30418;51.45933468;7.33152330;2024-03-29T10:45:21;14.00;65.90
9544;DHT22;30418;51.45933468;7.33152330;2024-03-29T10:47:51;14.10;66.00
9544;DHT22;30418;51.45933468;7.33152330;2024-03-29T10:50:21;14.00;65.90
9544;DHT22;30418;51.45933468;7.33152330;2024-03-29T10:52:52;14.10;65.80
9544;DHT22;30418;51.45933468;7.33152330;2024-03-29T10:55:20;14.10;65.70
9544;DHT22;30418;51.45933468;7.33152330;2024-03-29T10:57:51;14.10;65.70
9544;DHT22;30418;51.45933468;7.33152330;2024-03-29T11:00:21;14.10;65.90
9544;DHT22;30418;51.45933468;7.33152330;2024-03-29T11:02:50;14.20;65.90
9544;DHT22;30418;51.45933468;7.33152330;2024-03-29T11:05:22;14.20;66.10
9544;DHT22;30418;51.45933468;7.33152330;2024-03-29T11:07:52;14.20;66.20
9544;DHT22;30418;51.45933468;7.33152330;2024-03-29T11:10:24;14.30;66.40
9544;DHT22;30418;51.45933468;7.33152330;2024-03-29T11:13:01;14.40;66.40
9544;DHT22;30418;51.45933468;7.33152330;2024-03-29T11:15:37;14.40;66.40
9544;DHT22;30418;51.45933468;7.33152330;2024-03-29T11:18:06;14.40;66.20
9544;DHT22;30418;51.45933468;7.33152330;2024-03-29T11:20:35;14.50;66.20
9544;DHT22;30418;51.45933468;7.33152330;2024-03-29T11:23:09;14.50;66.00
9544;DHT22;30418;51.45933468;7.33152330;2024-03-29T11:25:40;14.60;65.90
9544;DHT22;30418;51.45933468;7.33152330;2024-03-29T11:28:08;14.60;65.80
9544;DHT22;30418;51.45933468;7.33152330;2024-03-29T11:30:40;14.60;65.80
9544;DHT22;30418;51.45933468;7.33152330;2024-03-29T11:33:27;14.60;65.80
9544;DHT22;30418;51.45933468;7.33152330;2024-03-29T11:35:56;14.70;66.00
9544;DHT22;30418;51.45933468;7.33152330;2024-03-29T11:38:31;14.70;65.70
9544;DHT22;30418;51.45933468;7.33152330;2024-03-29T11:41:06;14.70;65.60
9544;DHT22;30418;51.45933468;7.33152330;2024-03-29T11:43:35;14.80;65.60
9544;DHT22;30418;51.45933468;7.33152330;2024-03-29T11:46:06;14.80;65.50
9544;DHT22;30418;51.45933468;7.33152330;2024-03-29T11:48:35;14.80;65.60
9544;DHT22;30418;51.45933468;7.33152330;2024-03-29T11:51:06;14.80;65.40
9544;DHT22;30418;51.45933468;7.33152330;2024-03-29T11:53:38;14.80;65.40
9544;DHT22;30418;51.45933468;7.33152330;2024-03-29T11:56:06;14.80;65.30
9544;DHT22;30418;51.45933468;7.33152330;2024-03-29T11:58:35;14.90;65.50
9544;DHT22;30418;51.45933468;7.33152330;2024-03-29T12:01:03;14.90;65.60
9544;DHT22;30418;51.45933468;7.33152330;2024-03-29T12:03:32;15.00;66.70
9544;DHT22;30418;51.45933468;7.33152330;2024-03-29T12:06:00;15.00;65.80
9544;DHT22;30418;51.45933468;7.33152330;2024-03-29T12:08:29;15.10;65.80
9544;DHT22;30418;51.45933468;7.33152330;2024-03-29T12:10:59;15.20;66.00
9544;DHT22;30418;51.45933468;7.33152330;2024-03-29T12:13:28;15.20;65.90
9544;DHT22;30418;51.45933468;7.33152330;2024-03-29T12:15:56;15.30;65.80
9544;DHT22;30418;51.45933468;7.33152330;2024-03-29T12:18:25;15.40;65.60
9544;DHT22;30418;51.45933468;7.33152330;2024-03-29T12:20:54;15.40;65.60
9544;DHT22;30418;51.45933468;7.33152330;2024-03-29T12:23:22;15.50;65.50
9544;DHT22;30418;51.45933468;7.33152330;2024-03-29T12:25:53;15.50;65.20
9544;DHT22;30418;51.45933468;7.33152330;2024-03-29T12:28:25;15.50;65.20
9544;DHT22;30418;51.45933468;7.33152330;2024-03-29T12:30:54;15.50;65.10
9544;DHT22;30418;51.45933468;7.33152330;2024-03-29T12:33:23;15.60;65.00
9544;DHT22;30418;51.45933468;7.33152330;2024-03-29T12:35:52;15.60;64.80
9544;DHT22;30418;51.45933468;7.33152330;2024-03-29T12:38:22;15.60;64.70
9544;DHT22;30418;51.45933468;7.33152330;2024-03-29T12:40:50;15.60;64.70
9544;DHT22;30418;51.45933468;7.33152330;2024-03-29T12:43:20;15.60;64.70
9544;DHT22;30418;51.45933468;7.33152330;2024-03-29T12:45:51;15.50;64.60
9544;DHT22;30418;51.45933468;7.33152330;2024-03-29T12:48:20;15.50;64.60
9544;DHT22;30418;51.45933468;7.33152330;2024-03-29T12:50:49;15.50;64.60
9544;DHT22;30418;51.45933468;7.33152330;2024-03-29T12:53:18;15.50;64.50
9544;DHT22;30418;51.45933468;7.33152330;2024-03-29T12:55:47;15.60;64.70
9544;DHT22;30418;51.45933468;7.33152330;2024-03-29T12:58:15;15.50;64.60
9544;DHT22;30418;51.45933468;7.33152330;2024-03-29T13:00:46;15.50;64.60
9544;DHT22;30418;51.45933468;7.33152330;2024-03-29T13:03:16;15.50;64.60
9544;DHT22;30418;51.45933468;7.33152330;2024-03-29T13:05:43;15.50;65.40
9544;DHT22;30418;51.45933468;7.33152330;2024-03-29T13:08:12;15.50;64.60
9544;DHT22;30418;51.45933468;7.33152330;2024-03-29T13:10:42;15.50;64.60
9544;DHT22;30418;51.45933468;7.33152330;2024-03-29T13:13:09;15.40;64.60
9544;DHT22;30418;51.45933468;7.33152330;2024-03-29T13:15:38;15.40;64.70
9544;DHT22;30418;51.45933468;7.33152330;2024-03-29T13:18:07;15.40;65.00
9544;DHT22;30418;51.45933468;7.33152330;2024-03-29T13:20:37;15.30;65.00
9544;DHT22;30418;51.45933468;7.33152330;2024-03-29T13:23:07;15.30;65.40
9544;DHT22;30418;51.45933468;7.33152330;2024-03-29T13:25:35;15.20;65.40
9544;DHT22;30418;51.45933468;7.33152330;2024-03-29T13:28:03;15.20;65.50
9544;DHT22;30418;51.45933468;7.33152330;2024-03-29T13:30:31;15.20;65.60
9544;DHT22;30418;51.45933468;7.33152330;2024-03-29T13:32:59;15.20;65.70
9544;DHT22;30418;51.45933468;7.33152330;2024-03-29T13:35:27;15.20;65.80
9544;DHT22;30418;51.45933468;7.33152330;2024-03-29T13:37:56;15.10;65.80
9544;DHT22;30418;51.45933468;7.33152330;2024-03-29T13:40:24;15.10;65.90
9544;DHT22;30418;51.45933468;7.33152330;2024-03-29T13:42:51;15.10;65.90